Time;durP1;ratioP1;P1;durP2;ratioP2;P2;SDS_P1;SDS_P2;PMS_P1;PMS_P2;Temp;Humidity;BMP_temperature;BMP_pressure;BME280_temperature;BME280_humidity;BME280_pressure;Samples;Min_cycle;Max_cycle;Signal;HPM_P1;HPM_P2
2021/12/11 00:02:29;;;;;;;2.60;2.40;;;15.10;54.00;16.00;99614.00;;;;4968702;28;20746;-43
2021/12/11 00:04:57;;;;;;;2.70;2.50;;;15.10;54.10;15.70;99612.00;;;;4968426;28;20216;-44
2021/12/11 00:07:25;;;;;;;2.70;2.50;;;15.10;54.10;16.00;99612.00;;;;4969273;28;20692;-44
2021/12/11 00:10:00;;;;;;;2.57;2.37;;;15.10;54.10;16.00;99620.00;;;;4968079;28;20177;-44
2021/12/11 00:12:34;;;;;;;2.93;2.63;;;15.00;54.10;16.00;99625.00;;;;4969003;28;20259;-44
2021/12/11 00:15:11;;;;;;;2.80;2.60;;;15.00;54.20;15.90;99620.00;;;;4969197;28;20189;-44
2021/12/11 00:17:36;;;;;;;2.67;2.43;;;14.90;54.10;15.90;99623.00;;;;4969327;28;20220;-44
2021/12/11 00:20:06;;;;;;;2.70;2.50;;;14.90;54.20;15.90;99625.00;;;;4969655;28;20204;-42
2021/12/11 00:22:32;;;;;;;2.60;2.40;;;14.90;54.20;15.90;99648.00;;;;4969036;28;20200;-42
2021/12/11 00:25:00;;;;;;;2.70;2.50;;;14.90;54.20;15.80;99647.00;;;;4969460;28;20173;-44
2021/12/11 00:27:27;;;;;;;2.90;2.70;;;14.80;54.20;15.80;99658.00;;;;4969376;28;20232;-44
2021/12/11 00:29:53;;;;;;;2.83;2.23;;;14.80;54.20;15.80;99658.00;;;;4969507;28;20705;-42
2021/12/11 00:32:25;;;;;;;2.77;2.50;;;14.80;54.20;15.80;99660.00;;;;4969240;28;20261;-43
2021/12/11 00:34:56;;;;;;;2.70;2.50;;;14.80;54.20;15.70;99668.00;;;;4969858;28;20336;-43
2021/12/11 00:37:23;;;;;;;2.70;2.50;;;14.70;54.10;15.70;99672.00;;;;4969367;28;20613;-44
2021/12/11 00:40:16;;;;;;;2.70;2.50;;;14.70;54.20;15.70;99682.00;;;;4969397;28;20689;-44
2021/12/11 00:42:57;;;;;;;2.80;2.60;;;14.70;54.30;15.70;99690.00;;;;4968958;28;20597;-43
2021/12/11 00:45:26;;;;;;;3.00;2.70;;;14.60;54.20;15.60;99700.00;;;;4969391;28;20165;-43
2021/12/11 00:47:55;;;;;;;2.70;2.50;;;14.60;54.20;15.60;99704.00;;;;4969278;28;20718;-43
2021/12/11 00:50:25;;;;;;;2.93;2.63;;;14.60;54.20;15.60;99702.00;;;;4968269;28;20177;-44
2021/12/11 00:53:05;;;;;;;2.67;2.47;;;14.60;54.20;15.60;99710.00;;;;4969475;28;20208;-44
2021/12/11 00:55:35;;;;;;;2.83;2.63;;;14.60;54.20;15.50;99716.00;;;;4970357;28;20168;-44
2021/12/11 00:58:18;;;;;;;2.97;2.50;;;14.50;54.30;15.50;99714.00;;;;4969155;28;20189;-44
2021/12/11 01:01:06;;;;;;;3.00;2.77;;;14.50;54.20;15.50;99726.00;;;;4969420;28;20213;-43
2021/12/11 01:04:12;;;;;;;2.80;2.60;;;14.50;54.40;15.40;99733.00;;;;4968744;28;20549;-44
2021/12/11 01:06:54;;;;;;;2.70;2.50;;;14.50;54.40;15.40;99736.00;;;;4947028;29;20211;-45
2021/12/11 01:09:27;;;;;;;2.70;2.50;;;14.40;54.30;15.40;99738.00;;;;4966859;28;20192;-44
2021/12/11 01:12:11;;;;;;;2.70;2.50;;;14.40;54.30;15.40;99704.00;;;;4968642;28;20731;-43
2021/12/11 01:14:53;;;;;;;2.60;2.40;;;14.40;54.30;15.30;99764.00;;;;4968879;28;20200;-45
2021/12/11 01:17:44;;;;;;;2.97;2.40;;;14.30;54.20;15.30;99778.00;;;;4968706;28;20215;-44
2021/12/11 01:20:19;;;;;;;2.77;2.43;;;14.30;54.20;15.30;99782.00;;;;4969204;28;20161;-44
2021/12/11 01:22:44;;;;;;;2.70;2.50;;;14.30;54.20;15.30;99788.00;;;;4968515;28;20271;-43
2021/12/11 01:25:15;;;;;;;2.60;2.40;;;14.30;54.20;15.30;99786.00;;;;4968626;28;20636;-43
2021/12/11 01:27:44;;;;;;;2.77;2.57;;;14.20;54.10;15.20;99806.00;;;;4968767;28;20172;-42
2021/12/11 01:30:14;;;;;;;2.80;2.60;;;14.20;54.40;15.20;99802.00;;;;4968097;28;20212;-44
2021/12/11 01:32:40;;;;;;;2.67;2.47;;;14.20;54.40;15.20;99820.00;;;;4967597;28;20252;-41
2021/12/11 01:35:08;;;;;;;2.77;2.57;;;14.20;54.30;15.20;99822.00;;;;4967738;28;20181;-43
2021/12/11 01:37:34;;;;;;;4.07;3.10;;;14.10;54.30;15.20;99837.00;;;;4967773;28;20644;-43
2021/12/11 01:40:00;;;;;;;2.90;2.67;;;14.10;54.30;15.10;99810.00;;;;4968066;28;20176;-43
2021/12/11 01:42:29;;;;;;;2.80;2.60;;;14.10;54.40;14.90;99836.00;;;;4950041;28;20181;-44
2021/12/11 01:44:57;;;;;;;2.67;2.47;;;14.10;54.40;15.10;99848.00;;;;4967637;28;20177;-44
2021/12/11 01:47:31;;;;;;;2.80;2.60;;;14.10;54.40;15.10;99857.00;;;;4967686;28;20270;-43
2021/12/11 01:50:05;;;;;;;3.03;2.80;;;14.00;54.40;15.10;99862.00;;;;4968251;28;20271;-43
2021/12/11 01:52:39;;;;;;;2.77;2.57;;;14.00;54.40;15.10;99868.00;;;;4967242;28;20197;-44
2021/12/11 01:55:29;;;;;;;2.83;2.63;;;14.00;54.50;15.00;99872.00;;;;4967609;28;20231;-42
2021/12/11 01:57:55;;;;;;;2.90;2.60;;;13.90;54.50;15.00;99885.00;;;;4967028;28;20192;-45
2021/12/11 02:00:41;;;;;;;2.73;2.53;;;14.00;54.80;15.00;99887.00;;;;4967498;28;20186;-44
2021/12/11 02:03:14;;;;;;;3.10;2.80;;;13.90;54.40;14.90;99894.00;;;;4967630;28;20328;-43
2021/12/11 02:05:39;;;;;;;2.77;2.57;;;13.90;54.50;14.90;99903.00;;;;4966082;28;20177;-44
2021/12/11 02:08:10;;;;;;;2.70;2.50;;;13.90;54.70;14.90;99907.00;;;;4966902;28;20184;-44
2021/12/11 02:10:52;;;;;;;3.37;2.80;;;13.80;54.40;14.90;99906.00;;;;4967189;28;20161;-44
2021/12/11 02:13:29;;;;;;;2.70;2.50;;;13.80;54.50;14.90;99913.00;;;;4967065;28;20205;-43
2021/12/11 02:15:55;;;;;;;2.70;2.50;;;13.80;54.70;14.90;99927.00;;;;4967839;28;20239;-43
2021/12/11 02:18:35;;;;;;;2.90;2.70;;;13.80;54.50;14.80;99920.00;;;;4965838;28;20184;-44
2021/12/11 02:21:14;;;;;;;2.67;2.47;;;13.80;54.60;14.80;99924.00;;;;4966900;28;20153;-44
2021/12/11 02:23:41;;;;;;;2.90;2.70;;;13.70;54.60;14.80;99922.00;;;;4967128;28;20192;-43
2021/12/11 02:26:14;;;;;;;3.00;2.70;;;13.70;54.50;14.80;99932.00;;;;4968465;28;20192;-44
2021/12/11 02:28:45;;;;;;;2.63;2.43;;;13.70;54.40;14.80;99934.00;;;;4966973;28;20253;-44
2021/12/11 02:31:27;;;;;;;2.80;2.60;;;13.70;54.60;14.80;99943.00;;;;4966656;28;20396;-44
2021/12/11 02:34:11;;;;;;;2.77;2.57;;;13.70;54.60;14.70;99957.00;;;;4967048;28;20227;-43
2021/12/11 02:36:58;;;;;;;3.03;2.80;;;13.70;54.70;14.70;99962.00;;;;4967187;28;20168;-43
2021/12/11 02:39:44;;;;;;;2.80;2.60;;;13.60;54.70;14.70;99958.00;;;;4966995;28;20643;-43
2021/12/11 02:42:17;;;;;;;2.70;2.50;;;13.60;54.70;14.70;99966.00;;;;4966326;28;20226;-43
2021/12/11 02:44:53;;;;;;;3.20;2.90;;;13.60;54.90;14.70;99966.00;;;;4966773;28;20208;-44
2021/12/11 02:47:31;;;;;;;2.67;2.47;;;13.60;54.70;14.60;99970.00;;;;4966567;28;20533;-44
2021/12/11 02:50:07;;;;;;;3.23;2.93;;;13.60;54.80;14.60;99976.00;;;;4966874;28;20169;-44
2021/12/11 02:52:44;;;;;;;3.07;2.77;;;13.50;54.60;14.60;99984.00;;;;4966304;28;20215;-43
2021/12/11 02:55:23;;;;;;;3.17;2.93;;;13.60;54.60;14.60;99993.00;;;;4967020;28;20171;-44
2021/12/11 02:58:00;;;;;;;3.33;3.03;;;13.70;54.40;14.70;99979.00;;;;4966618;28;20169;-44
2021/12/11 03:00:39;;;;;;;3.00;2.80;;;13.90;54.20;14.80;99993.00;;;;4966546;28;20552;-44
2021/12/11 03:03:10;;;;;;;3.30;3.00;;;14.20;54.10;14.90;99994.00;;;;4966335;28;20260;-44
2021/12/11 03:05:52;;;;;;;3.90;3.10;;;14.50;53.80;15.10;99990.00;;;;4966516;28;20519;-43
2021/12/11 03:08:20;;;;;;;3.40;3.10;;;14.80;53.30;15.20;99999.00;;;;4950730;28;20231;-44
2021/12/11 03:10:54;;;;;;;4.20;3.33;;;15.10;53.00;15.40;99996.00;;;;4968566;28;20260;-44
2021/12/11 03:13:20;;;;;;;4.00;3.13;;;15.30;52.80;15.50;99998.00;;;;4969890;28;20251;-43
2021/12/11 03:15:46;;;;;;;4.80;3.60;;;15.40;52.70;15.70;100014.00;;;;4970925;28;20534;-43
2021/12/11 03:18:13;;;;;;;4.00;3.27;;;15.50;52.70;15.70;100009.00;;;;4970561;28;20181;-44
2021/12/11 03:20:39;;;;;;;4.13;3.70;;;15.50;52.60;15.80;100019.00;;;;4969402;28;20275;-43
2021/12/11 03:23:07;;;;;;;3.90;3.50;;;15.60;52.70;15.90;100024.00;;;;4970232;28;20376;-43
2021/12/11 03:25:34;;;;;;;3.57;3.27;;;15.60;52.60;15.90;100022.00;;;;4970359;28;20239;-43
2021/12/11 03:28:00;;;;;;;3.70;3.40;;;15.60;52.50;16.00;100024.00;;;;4969068;28;20531;-43
2021/12/11 03:30:31;;;;;;;4.30;3.20;;;15.60;52.60;16.00;100040.00;;;;4970557;28;20165;-43
2021/12/11 03:33:02;;;;;;;3.50;3.20;;;15.60;52.70;16.10;100042.00;;;;4969895;28;20276;-43
2021/12/11 03:35:27;;;;;;;3.80;3.40;;;15.60;52.80;16.10;100051.00;;;;4969383;28;20526;-43
2021/12/11 03:37:53;;;;;;;3.70;3.40;;;15.60;52.80;16.10;100049.00;;;;4970279;28;20378;-43
2021/12/11 03:40:19;;;;;;;5.63;3.60;;;15.60;52.90;16.10;100048.00;;;;4969964;28;20177;-42
2021/12/11 03:42:46;;;;;;;3.83;3.43;;;15.60;53.10;16.10;100056.00;;;;4969764;28;20487;-43
2021/12/11 03:45:17;;;;;;;3.90;3.60;;;15.60;53.10;16.10;100074.00;;;;4970077;28;20550;-43
2021/12/11 03:47:49;;;;;;;4.33;3.60;;;15.50;53.00;16.10;100081.00;;;;4962978;28;20630;-43
2021/12/11 03:50:17;;;;;;;3.90;3.50;;;15.50;53.00;16.10;99998.00;;;;4966141;28;20628;-42
2021/12/11 03:52:43;;;;;;;4.20;3.53;;;15.50;53.10;16.10;100084.00;;;;4967679;28;20192;-42
2021/12/11 03:55:10;;;;;;;4.00;3.70;;;15.50;53.30;16.20;100083.00;;;;4968167;28;20260;-41
2021/12/11 03:57:37;;;;;;;3.70;3.40;;;15.40;53.30;16.10;100079.00;;;;4968263;28;20177;-44
2021/12/11 04:00:09;;;;;;;4.30;3.90;;;15.40;53.40;16.10;100084.00;;;;4967952;28;20260;-42
2021/12/11 04:02:35;;;;;;;3.70;3.40;;;15.30;53.30;16.10;100080.00;;;;4967572;28;20204;-41
2021/12/11 04:05:03;;;;;;;4.37;3.97;;;15.30;53.40;16.10;100088.00;;;;4968018;28;20177;-44
2021/12/11 04:07:33;;;;;;;4.10;3.70;;;15.30;53.40;16.10;100098.00;;;;4968086;28;20710;-44
2021/12/11 04:09:59;;;;;;;3.70;3.40;;;15.30;53.60;16.10;100103.00;;;;4967600;28;20169;-44
2021/12/11 04:12:25;;;;;;;4.53;4.10;;;15.20;53.60;16.00;100098.00;;;;4967652;28;20252;-44
2021/12/11 04:14:52;;;;;;;4.60;4.10;;;15.20;53.60;16.00;100114.00;;;;4968100;28;20614;-43
2021/12/11 04:17:21;;;;;;;4.13;3.80;;;15.20;53.70;16.00;100119.00;;;;4969192;28;20173;-44
2021/12/11 04:19:47;;;;;;;4.47;3.93;;;15.10;53.60;16.00;100118.00;;;;4971046;28;20216;-44
2021/12/11 04:22:13;;;;;;;5.97;4.23;;;15.10;53.70;16.00;100129.00;;;;4967362;28;20204;-45
2021/12/11 04:24:42;;;;;;;4.90;4.40;;;15.10;53.70;16.00;100137.00;;;;4967686;28;20172;-43
2021/12/11 04:27:09;;;;;;;4.67;4.27;;;15.10;53.80;15.90;100136.00;;;;4968010;28;20209;-43
2021/12/11 04:29:35;;;;;;;5.07;4.57;;;15.00;53.80;15.90;100131.00;;;;4967331;28;20184;-44
2021/12/11 04:32:02;;;;;;;4.57;4.17;;;15.00;53.80;15.90;100143.00;;;;4967127;28;20575;-44
2021/12/11 04:34:28;;;;;;;5.50;4.83;;;15.00;53.90;15.90;100141.00;;;;4967762;28;20622;-44
2021/12/11 04:37:02;;;;;;;5.47;4.50;;;14.90;53.80;15.90;100137.00;;;;4967368;28;20185;-42
2021/12/11 04:39:34;;;;;;;5.10;4.60;;;14.90;53.90;15.80;100154.00;;;;4967669;28;20188;-44
2021/12/11 04:42:06;;;;;;;5.33;4.83;;;14.90;53.90;15.80;100151.00;;;;4967534;28;20525;-44
2021/12/11 04:44:38;;;;;;;5.40;4.90;;;14.80;53.90;15.80;100155.00;;;;4967274;28;20435;-43
2021/12/11 04:47:13;;;;;;;5.30;4.80;;;14.80;53.90;15.70;100152.00;;;;4932317;28;1036066;-44
2021/12/11 04:49:47;;;;;;;5.30;4.80;;;14.80;53.90;15.70;100154.00;;;;4967941;28;20172;-43
2021/12/11 04:52:18;;;;;;;5.60;5.10;;;14.80;54.00;15.70;100160.00;;;;4968345;28;20292;-44
2021/12/11 04:55:04;;;;;;;6.70;5.07;;;14.70;54.10;15.70;100168.00;;;;4968759;28;20207;-43
2021/12/11 04:58:46;;;;;;;5.47;4.97;;;14.70;54.10;15.70;100173.00;;;;4968498;28;20180;-44
2021/12/11 05:13:21;;;;;;;6.87;5.77;;;14.60;54.00;15.50;100196.00;;;;4968289;28;20200;-45
2021/12/11 05:15:48;;;;;;;6.43;5.80;;;14.60;54.10;15.50;100207.00;;;;4968820;28;20193;-44
2021/12/11 05:18:17;;;;;;;6.63;6.03;;;14.50;54.10;15.50;100203.00;;;;4968472;28;20162;-43
2021/12/11 05:20:45;;;;;;;5.67;5.17;;;14.50;54.30;15.50;100202.00;;;;4968707;28;20173;-44
2021/12/11 05:23:11;;;;;;;6.87;6.23;;;14.50;54.20;15.50;100214.00;;;;4967691;28;20228;-44
2021/12/11 05:25:37;;;;;;;6.40;5.80;;;14.50;54.10;15.40;100215.00;;;;4968393;28;20207;-44
2021/12/11 05:28:03;;;;;;;6.60;5.90;;;14.50;54.20;15.40;100216.00;;;;4968113;28;20236;-44
2021/12/11 05:30:36;;;;;;;6.33;5.73;;;14.50;54.20;15.40;100224.00;;;;4968263;28;20173;-44
2021/12/11 05:33:02;;;;;;;6.90;6.20;;;14.40;54.20;15.40;100234.00;;;;4966788;28;20252;-44
2021/12/11 05:35:30;;;;;;;6.83;6.13;;;14.40;54.20;15.30;100224.00;;;;4968107;28;20177;-44
2021/12/11 05:37:56;;;;;;;7.03;6.33;;;14.30;54.20;15.30;100233.00;;;;4967861;28;20261;-44
2021/12/11 05:40:22;;;;;;;7.30;6.60;;;14.30;54.20;15.30;100244.00;;;;4966733;28;20610;-44
2021/12/11 05:42:48;;;;;;;7.57;6.50;;;14.30;54.20;15.30;100234.00;;;;4967721;28;20243;-44
2021/12/11 05:45:14;;;;;;;7.67;6.97;;;14.30;54.20;15.30;100240.00;;;;4968361;28;20842;-44
2021/12/11 05:47:40;;;;;;;6.93;6.33;;;14.30;54.20;15.30;100248.00;;;;4967834;28;20193;-44
2021/12/11 05:50:09;;;;;;;7.20;6.60;;;14.30;54.20;15.30;100256.00;;;;4967244;28;20169;-44
2021/12/11 05:52:36;;;;;;;7.50;6.80;;;14.20;54.10;15.20;100262.00;;;;4968095;28;20196;-44
2021/12/11 05:55:04;;;;;;;7.20;6.50;;;14.20;54.20;15.20;100266.00;;;;4967926;28;20266;-44
2021/12/11 05:57:30;;;;;;;7.37;6.77;;;14.20;54.20;15.20;100279.00;;;;4967636;28;20674;-44
2021/12/11 05:59:56;;;;;;;7.40;6.70;;;14.20;54.20;15.20;100288.00;;;;4967427;28;20169;-44
2021/12/11 06:02:25;;;;;;;6.83;6.23;;;14.10;54.00;15.20;100284.00;;;;4967086;28;20188;-44
2021/12/11 06:04:57;;;;;;;7.43;6.73;;;14.10;54.00;15.20;100288.00;;;;4967529;28;20208;-43
2021/12/11 06:07:24;;;;;;;7.67;6.97;;;14.10;54.20;15.10;100291.00;;;;4967543;28;20158;-44
2021/12/11 06:09:56;;;;;;;7.47;6.77;;;14.10;54.30;15.10;100295.00;;;;4967754;28;20180;-44
2021/12/11 06:12:22;;;;;;;7.17;6.47;;;14.10;54.50;15.10;100310.00;;;;4967015;28;20260;-44
2021/12/11 06:14:48;;;;;;;7.67;6.87;;;14.10;54.30;15.10;100303.00;;;;4967129;28;20250;-44
2021/12/11 06:17:16;;;;;;;7.37;6.70;;;14.10;54.40;15.10;100308.00;;;;4967301;28;20173;-44
2021/12/11 06:19:48;;;;;;;7.30;6.60;;;14.00;54.40;15.10;100311.00;;;;4967140;28;20268;-42
2021/12/11 06:22:14;;;;;;;6.93;6.33;;;14.00;54.50;15.10;100319.00;;;;4966760;28;20204;-43
2021/12/11 06:24:40;;;;;;;6.93;6.33;;;14.00;54.50;15.10;100321.00;;;;4966985;28;20208;-43
2021/12/11 06:27:06;;;;;;;7.23;6.63;;;14.00;54.50;15.00;100316.00;;;;4967047;28;20180;-43
2021/12/11 06:29:31;;;;;;;7.47;6.77;;;14.00;54.40;15.00;100317.00;;;;4967201;28;20232;-44
2021/12/11 06:31:57;;;;;;;7.60;6.80;;;13.90;54.50;15.00;100320.00;;;;4966944;28;20256;-44
2021/12/11 06:34:23;;;;;;;7.40;6.70;;;13.90;54.50;15.00;100336.00;;;;4967692;28;20276;-44
2021/12/11 06:36:49;;;;;;;7.63;6.93;;;13.90;54.50;15.00;100320.00;;;;4966178;28;20169;-44
2021/12/11 06:39:19;;;;;;;7.27;6.57;;;13.80;54.40;15.00;100335.00;;;;4965939;28;20558;-44
2021/12/11 06:41:48;;;;;;;7.40;6.70;;;13.90;54.50;14.90;100336.00;;;;4966638;28;20165;-43
2021/12/11 06:44:14;;;;;;;7.07;6.47;;;13.80;54.60;14.90;100345.00;;;;4966983;28;20201;-44
2021/12/11 06:46:41;;;;;;;7.67;6.97;;;13.80;54.50;14.90;100360.00;;;;4966880;28;20199;-44
2021/12/11 06:49:07;;;;;;;7.23;6.53;;;13.80;54.40;14.90;100362.00;;;;4966468;28;20245;-44
2021/12/11 06:51:33;;;;;;;6.70;6.10;;;13.80;54.50;14.90;100368.00;;;;4965873;28;20272;-44
2021/12/11 06:54:06;;;;;;;7.80;7.00;;;13.80;54.50;14.90;100324.00;;;;4966247;28;20243;-44
2021/12/11 06:56:31;;;;;;;7.37;6.67;;;13.70;54.40;14.90;100238.00;;;;4966732;28;20671;-44
2021/12/11 06:58:58;;;;;;;7.13;6.53;;;13.70;54.60;14.90;100381.00;;;;4966502;28;20212;-44
2021/12/11 07:01:24;;;;;;;7.30;6.60;;;13.70;54.50;14.80;100391.00;;;;4966129;28;20168;-44
2021/12/11 07:03:49;;;;;;;9.23;6.70;;;13.70;54.50;14.80;100392.00;;;;4966263;28;20193;-44
2021/12/11 07:06:15;;;;;;;7.30;6.60;;;13.70;54.50;14.80;100389.00;;;;4966613;28;20301;-44
2021/12/11 07:08:41;;;;;;;8.83;6.63;;;13.70;54.30;14.80;100399.00;;;;4966261;28;20529;-43
2021/12/11 07:11:08;;;;;;;9.20;6.40;;;13.70;54.50;14.90;100410.00;;;;4966302;28;20172;-44
2021/12/11 07:13:34;;;;;;;10.53;6.93;;;13.70;54.70;14.80;100407.00;;;;4966144;28;20201;-44
2021/12/11 07:16:00;;;;;;;11.63;6.90;;;13.70;54.90;14.80;100415.00;;;;4966526;28;20236;-43
2021/12/11 07:18:27;;;;;;;9.67;7.00;;;13.70;54.90;14.80;100423.00;;;;4965229;28;20879;-44
2021/12/11 07:20:54;;;;;;;9.80;7.20;;;13.70;54.90;14.80;100423.00;;;;4966093;28;20196;-44
2021/12/11 07:23:20;;;;;;;12.03;6.67;;;13.70;55.20;14.80;100430.00;;;;4966147;28;20291;-43
2021/12/11 07:25:52;;;;;;;9.33;6.60;;;13.70;55.00;14.80;100440.00;;;;4966384;28;20672;-43
2021/12/11 07:28:18;;;;;;;8.43;6.70;;;13.60;54.90;14.80;100439.00;;;;4965959;28;20205;-43
2021/12/11 07:30:45;;;;;;;8.30;6.13;;;13.60;55.00;14.70;100450.00;;;;4965695;28;20649;-43
2021/12/11 07:33:12;;;;;;;9.00;6.83;;;13.60;55.00;14.70;100451.00;;;;4965763;28;20339;-43
2021/12/11 07:35:38;;;;;;;8.33;6.37;;;13.60;55.00;14.70;100453.00;;;;4966523;28;20305;-44
2021/12/11 07:38:04;;;;;;;8.23;6.50;;;13.50;55.00;14.70;100456.00;;;;4965692;28;20243;-44
2021/12/11 07:40:34;;;;;;;9.83;6.63;;;13.50;55.00;14.70;100457.00;;;;4964596;28;20208;-44
2021/12/11 07:43:00;;;;;;;9.10;6.37;;;13.50;55.00;14.70;100476.00;;;;4967086;28;20551;-44
2021/12/11 07:45:25;;;;;;;6.67;6.00;;;13.50;55.00;14.70;100462.00;;;;4969397;28;20173;-43
2021/12/11 07:47:51;;;;;;;8.17;6.50;;;13.50;55.40;14.70;100472.00;;;;4966682;28;20193;-44
2021/12/11 07:50:17;;;;;;;8.17;6.27;;;13.60;55.30;14.70;100482.00;;;;4966021;28;20305;-43
2021/12/11 07:52:43;;;;;;;8.07;6.20;;;13.70;55.20;14.70;100480.00;;;;4965667;28;20426;-43
2021/12/11 07:55:09;;;;;;;6.70;5.90;;;13.90;55.10;14.80;100485.00;;;;4961901;28;20204;-43
2021/12/11 07:57:36;;;;;;;7.70;6.03;;;14.20;55.00;14.90;100457.00;;;;4971741;28;20157;-43
2021/12/11 08:00:07;;;;;;;7.27;5.47;;;14.40;54.70;15.10;100493.00;;;;4971122;28;20398;-43
2021/12/11 08:02:32;;;;;;;7.60;5.60;;;14.70;54.50;15.20;100496.00;;;;4972101;28;20197;-44
2021/12/11 08:04:58;;;;;;;7.03;5.83;;;15.00;54.40;15.40;100493.00;;;;4972103;28;20321;-42
2021/12/11 08:07:24;;;;;;;7.13;5.87;;;15.10;54.00;15.50;100504.00;;;;4970680;28;20168;-43
2021/12/11 08:09:49;;;;;;;6.60;5.90;;;15.30;54.00;15.60;100492.00;;;;4972247;28;20212;-43
2021/12/11 08:12:15;;;;;;;6.20;5.60;;;15.40;54.00;15.70;100499.00;;;;4971868;28;20667;-43
2021/12/11 08:14:41;;;;;;;6.23;5.43;;;15.50;54.00;15.80;100502.00;;;;4971998;28;20197;-43
2021/12/11 08:17:07;;;;;;;6.40;5.80;;;15.50;53.90;15.90;100512.00;;;;4972565;28;20411;-42
2021/12/11 08:19:33;;;;;;;8.90;5.70;;;15.50;53.80;16.00;100522.00;;;;4971451;28;20762;-42
2021/12/11 08:22:03;;;;;;;6.30;5.70;;;15.50;53.70;16.00;100516.00;;;;4971769;28;20184;-42
2021/12/11 08:24:29;;;;;;;6.17;5.57;;;15.60;53.70;16.10;100524.00;;;;4971982;28;20201;-43
2021/12/11 08:27:00;;;;;;;6.30;5.70;;;15.70;53.60;16.10;100519.00;;;;4972351;28;20185;-43
2021/12/11 08:29:26;;;;;;;6.90;5.53;;;15.70;53.70;16.10;100529.00;;;;4971960;28;20176;-44
2021/12/11 08:31:54;;;;;;;6.17;5.33;;;15.60;53.80;16.20;100533.00;;;;4971721;28;20180;-42
2021/12/11 08:34:20;;;;;;;6.47;5.67;;;15.60;53.80;16.20;100537.00;;;;4972082;28;20203;-43
2021/12/11 08:36:45;;;;;;;5.37;4.97;;;15.60;54.00;16.20;100531.00;;;;4971844;28;20173;-43
2021/12/11 08:39:13;;;;;;;5.87;5.27;;;15.60;54.10;16.20;100544.00;;;;4971195;28;20613;-43
2021/12/11 08:41:39;;;;;;;6.47;5.40;;;15.50;54.10;16.20;100480.00;;;;4971476;28;20181;-42
2021/12/11 08:44:10;;;;;;;5.97;5.40;;;15.50;54.20;16.20;100552.00;;;;4961786;28;20672;-43
2021/12/11 08:46:36;;;;;;;5.43;4.93;;;15.50;54.20;16.20;100554.00;;;;4971514;28;20189;-43
2021/12/11 08:49:10;;;;;;;5.73;5.10;;;15.50;54.30;16.20;100559.00;;;;4951871;28;20182;-43
2021/12/11 08:51:46;;;;;;;5.23;4.83;;;15.50;54.30;16.20;100570.00;;;;4951751;28;20158;-44
2021/12/11 08:54:12;;;;;;;6.57;5.27;;;15.40;54.30;16.20;100563.00;;;;4952140;28;20213;-44
2021/12/11 08:56:40;;;;;;;5.60;5.10;;;15.50;54.40;16.20;100569.00;;;;4951949;28;20192;-43
2021/12/11 08:59:08;;;;;;;6.17;5.57;;;15.40;54.40;16.20;100573.00;;;;4951298;28;20265;-43
2021/12/11 09:01:45;;;;;;;5.73;5.23;;;15.40;54.40;16.20;100576.00;;;;4951257;28;20165;-43
2021/12/11 09:04:37;;;;;;;5.77;5.27;;;15.30;54.40;16.20;100579.00;;;;4951589;28;20268;-44
2021/12/11 09:07:16;;;;;;;5.90;5.30;;;15.30;54.50;16.10;100581.00;;;;4950409;28;20628;-43
2021/12/11 09:10:04;;;;;;;5.80;5.27;;;15.30;54.60;16.10;100576.00;;;;4951144;28;20527;-42
2021/12/11 09:12:50;;;;;;;5.57;5.07;;;15.30;54.80;16.10;100581.00;;;;4952526;28;20284;-44
2021/12/11 09:15:19;;;;;;;5.70;5.20;;;15.20;54.60;16.10;100591.00;;;;4954857;28;20190;-43
2021/12/11 09:17:51;;;;;;;6.23;5.63;;;15.20;54.70;16.00;100589.00;;;;4951201;28;20779;-44
2021/12/11 09:20:37;;;;;;;5.77;5.07;;;15.20;54.70;16.00;100583.00;;;;4951331;28;20468;-43
2021/12/11 09:23:35;;;;;;;5.50;5.00;;;15.10;54.80;16.00;100593.00;;;;4950936;28;20202;-43
2021/12/11 09:26:15;;;;;;;6.00;5.40;;;15.10;54.90;16.00;100598.00;;;;4946564;28;20260;-43
2021/12/11 09:28:56;;;;;;;5.50;5.00;;;15.00;54.80;16.00;100609.00;;;;4951306;28;20518;-44
2021/12/11 09:31:38;;;;;;;5.53;5.03;;;15.00;54.80;15.90;100606.00;;;;4950860;28;20263;-42
2021/12/11 09:34:17;;;;;;;6.03;5.53;;;15.00;54.80;15.90;100617.00;;;;4950940;29;20205;-42
2021/12/11 09:36:49;;;;;;;5.83;5.33;;;15.00;54.80;15.90;100619.00;;;;4951279;28;20229;-43
2021/12/11 09:39:33;;;;;;;5.60;5.10;;;15.00;54.90;15.90;100623.00;;;;4950629;28;20162;-43
2021/12/11 09:41:59;;;;;;;5.80;5.30;;;14.90;54.90;15.90;100631.00;;;;4950756;28;20340;-42
2021/12/11 09:44:50;;;;;;;5.70;5.20;;;14.90;55.00;15.80;100586.00;;;;4950715;29;20277;-43
2021/12/11 09:47:24;;;;;;;5.70;5.20;;;14.80;55.00;15.80;100629.00;;;;4950889;29;20688;-42
2021/12/11 09:49:57;;;;;;;5.70;5.20;;;14.80;55.00;15.80;100630.00;;;;4950823;28;20549;-42
2021/12/11 09:52:23;;;;;;;6.10;5.50;;;14.80;55.00;15.80;100634.00;;;;4950590;28;20544;-43
2021/12/11 09:55:00;;;;;;;8.93;6.00;;;14.80;56.20;15.80;100631.00;;;;4966276;28;20192;-42
2021/12/11 09:57:29;;;;;;;7.47;5.43;;;14.80;56.50;15.70;100633.00;;;;4969810;28;20243;-44
2021/12/11 09:59:56;;;;;;;8.97;5.70;;;14.80;55.90;15.80;100641.00;;;;4968702;28;20249;-43
2021/12/11 10:02:30;;;;;;;7.53;5.57;;;14.80;56.00;15.70;100647.00;;;;4969464;28;20173;-43
2021/12/11 10:05:31;;;;;;;12.23;5.90;;;14.80;56.60;15.70;100648.00;;;;4970456;28;20271;-43
2021/12/11 10:11:09;;;;;;;9.87;5.83;;;14.80;57.50;15.70;100647.00;;;;4969124;28;20164;-43
2021/12/11 10:13:56;;;;;;;9.97;6.10;;;14.80;57.40;15.70;100643.00;;;;4969046;28;20295;-43
2021/12/11 10:16:25;;;;;;;13.90;5.93;;;14.80;58.10;15.70;100644.00;;;;4969826;28;20196;-44
2021/12/11 10:18:52;;;;;;;13.17;6.40;;;14.80;59.50;15.70;100646.00;;;;4968985;28;20538;-43
2021/12/11 10:21:25;;;;;;;12.77;6.70;;;14.80;60.00;15.70;100650.00;;;;4968892;28;20777;-42
2021/12/11 10:23:53;;;;;;;12.87;6.50;;;14.80;60.00;15.70;100664.00;;;;4969325;28;20189;-43
2021/12/11 10:26:20;;;;;;;14.13;6.13;;;14.80;59.20;15.70;100649.00;;;;4970156;28;20180;-43
2021/12/11 10:28:51;;;;;;;10.17;6.07;;;14.70;58.70;15.70;100652.00;;;;4969809;28;20227;-43
2021/12/11 10:31:29;;;;;;;9.23;6.00;;;14.70;58.50;15.70;100658.00;;;;4969501;28;20185;-44
2021/12/11 10:33:56;;;;;;;8.73;6.00;;;14.70;58.30;15.60;100657.00;;;;4949934;28;20342;-43
2021/12/11 10:36:26;;;;;;;13.03;6.50;;;14.60;57.90;15.60;100661.00;;;;4953780;28;20185;-44
2021/12/11 10:38:52;;;;;;;11.83;6.20;;;14.60;58.10;15.60;100667.00;;;;4969029;28;20457;-43
2021/12/11 10:41:19;;;;;;;11.23;6.53;;;14.60;58.20;15.60;100665.00;;;;4968560;28;20205;-43
2021/12/11 10:43:53;;;;;;;8.97;5.77;;;14.60;58.20;15.60;100663.00;;;;4969019;28;20192;-43
2021/12/11 10:46:21;;;;;;;11.20;6.10;;;14.60;58.30;15.60;100661.00;;;;4970062;28;20192;-43
2021/12/11 10:48:47;;;;;;;11.07;6.13;;;14.60;58.50;15.60;100662.00;;;;4969907;28;20239;-43
2021/12/11 10:51:21;;;;;;;9.53;6.30;;;14.60;58.90;15.50;100665.00;;;;4968885;28;20658;-43
2021/12/11 10:53:47;;;;;;;11.13;5.90;;;14.50;58.10;15.50;100674.00;;;;4968895;28;20259;-43
2021/12/11 10:56:16;;;;;;;7.03;6.00;;;14.50;58.00;15.50;100681.00;;;;4969074;28;20180;-43
2021/12/11 10:58:52;;;;;;;9.27;6.00;;;14.50;57.80;15.50;100683.00;;;;4969213;28;20647;-43
2021/12/11 11:01:27;;;;;;;8.17;6.00;;;14.40;57.70;15.50;100685.00;;;;4969404;28;20172;-43
2021/12/11 11:03:59;;;;;;;7.70;5.67;;;14.40;57.50;15.50;100673.00;;;;4969547;28;20246;-43
2021/12/11 11:06:25;;;;;;;7.77;6.53;;;14.40;57.60;15.50;100682.00;;;;4969453;28;20161;-43
2021/12/11 11:08:52;;;;;;;7.27;5.60;;;14.40;57.50;15.40;100673.00;;;;4968571;28;20538;-43
2021/12/11 11:11:21;;;;;;;6.17;5.57;;;14.40;57.50;15.40;100671.00;;;;4968633;28;20189;-44
2021/12/11 11:13:47;;;;;;;6.97;5.73;;;14.30;57.40;15.40;100674.00;;;;4965115;28;20202;-43
2021/12/11 11:16:14;;;;;;;7.20;6.07;;;14.30;57.20;15.40;100688.00;;;;4950057;28;20169;-42
2021/12/11 11:18:40;;;;;;;6.27;5.63;;;14.30;57.20;15.40;100682.00;;;;4948187;29;20173;-43
2021/12/11 11:21:15;;;;;;;7.63;6.03;;;14.30;57.20;15.40;100679.00;;;;4948998;28;20220;-43